Lavalette, West Virginia
Current Conditions -  °F | °C
As of 4:51 AM on Saturday 20 Dec 2014 (Local Time) from KHTS Reporting Station
Overcast Overcast  
Wind Chill: 29°   Ceiling: 9000
Heat Index: 29°   Visibility: 9mi
Dew Point: 24°   Wind: 0mph
Humidity: 82%   Direction: NA
Pressure: 30.24"   Gusts: NA
Location:  38.32°N, 82.45°W
Report Text: KHTS 200951Z 00000KT 9SM BKN090 OVC110 M02/M04 A3024 RMK AO2 SLP249 T10171044
Loading
Personal Weather Stations






























Interactive Weather Map New forecast layout! Learn more

10-Day Weather Forecast

Advertisements
Track Severe Weather on mobile